Malczyce, Poland
Current Conditions -  °F | °C
As of 3:00 PM on Thursday 30 Oct 2014 (Local Time) from EPWR Reporting Station
Broken Clouds Broken Clouds  
Wind Chill: 52°   Ceiling: 2800
Heat Index: 52°   Visibility: 6mi
Dew Point: 41°   Wind: 7mph
Humidity: 67%   Direction: 270°W
Pressure: 30.27"   Gusts: NA
Location:  51.22°N, 16.48°E
Report Text: EPWR 301300Z 27006KT 230V290 9999 BKN028 11/05 Q1025
Loading
Personal Weather Stations






























Interactive Weather Map
Tropical Storm Tracking
New forecast layout! Learn more

10-Day Weather Forecast

Advertisements
Track Severe Weather on mobile